sensor_id;sensor_type;location;lat;lon;timestamp;P1;durP1;ratioP1;P2;durP2;ratioP2
12715;SDS011;6422;49.938;9.124;2022-10-16T00:02:15;10.27;;;3.20;;
12715;SDS011;6422;49.938;9.124;2022-10-16T00:04:40;13.90;;;3.20;;
12715;SDS011;6422;49.938;9.124;2022-10-16T00:07:05;10.73;;;3.03;;
12715;SDS011;6422;49.938;9.124;2022-10-16T00:09:30;10.17;;;2.90;;
12715;SDS011;6422;49.938;9.124;2022-10-16T00:11:55;11.33;;;3.33;;
12715;SDS011;6422;49.938;9.124;2022-10-16T00:14:20;11.20;;;3.50;;
12715;SDS011;6422;49.938;9.124;2022-10-16T00:16:46;10.70;;;2.63;;
12715;SDS011;6422;49.938;9.124;2022-10-16T00:19:11;10.73;;;2.90;;
12715;SDS011;6422;49.938;9.124;2022-10-16T00:21:37;9.00;;;2.60;;
12715;SDS011;6422;49.938;9.124;2022-10-16T00:24:04;10.00;;;3.00;;
12715;SDS011;6422;49.938;9.124;2022-10-16T00:26:30;13.97;;;2.90;;
12715;SDS011;6422;49.938;9.124;2022-10-16T00:28:56;10.83;;;3.13;;
12715;SDS011;6422;49.938;9.124;2022-10-16T00:31:21;11.60;;;3.50;;
12715;SDS011;6422;49.938;9.124;2022-10-16T00:33:47;10.67;;;3.80;;
12715;SDS011;6422;49.938;9.124;2022-10-16T00:36:13;15.80;;;3.83;;
12715;SDS011;6422;49.938;9.124;2022-10-16T00:38:39;10.60;;;3.30;;
12715;SDS011;6422;49.938;9.124;2022-10-16T00:41:05;12.10;;;3.73;;
12715;SDS011;6422;49.938;9.124;2022-10-16T00:46:03;17.60;;;4.40;;
12715;SDS011;6422;49.938;9.124;2022-10-16T00:48:29;12.33;;;3.60;;
12715;SDS011;6422;49.938;9.124;2022-10-16T00:50:55;10.57;;;3.40;;
12715;SDS011;6422;49.938;9.124;2022-10-16T00:53:20;11.00;;;3.17;;
12715;SDS011;6422;49.938;9.124;2022-10-16T00:55:46;11.70;;;3.67;;
12715;SDS011;6422;49.938;9.124;2022-10-16T00:58:11;10.33;;;2.70;;
12715;SDS011;6422;49.938;9.124;2022-10-16T01:00:37;10.27;;;2.83;;
12715;SDS011;6422;49.938;9.124;2022-10-16T01:03:02;11.53;;;3.40;;
12715;SDS011;6422;49.938;9.124;2022-10-16T01:05:32;9.37;;;3.40;;
12715;SDS011;6422;49.938;9.124;2022-10-16T01:18:17;11.60;;;3.10;;
12715;SDS011;6422;49.938;9.124;2022-10-16T01:20:48;10.80;;;2.97;;
12715;SDS011;6422;49.938;9.124;2022-10-16T01:31:15;14.43;;;3.00;;
12715;SDS011;6422;49.938;9.124;2022-10-16T01:33:44;29.53;;;3.00;;
12715;SDS011;6422;49.938;9.124;2022-10-16T01:36:12;10.00;;;2.80;;
12715;SDS011;6422;49.938;9.124;2022-10-16T01:38:38;12.10;;;2.90;;
12715;SDS011;6422;49.938;9.124;2022-10-16T01:41:13;9.30;;;2.80;;
12715;SDS011;6422;49.938;9.124;2022-10-16T01:43:41;13.97;;;2.57;;
12715;SDS011;6422;49.938;9.124;2022-10-16T01:46:08;9.90;;;2.90;;
12715;SDS011;6422;49.938;9.124;2022-10-16T01:48:34;10.27;;;2.73;;
12715;SDS011;6422;49.938;9.124;2022-10-16T01:51:04;19.60;;;2.30;;
12715;SDS011;6422;49.938;9.124;2022-10-16T01:53:30;9.30;;;2.60;;
12715;SDS011;6422;49.938;9.124;2022-10-16T01:55:56;10.80;;;2.80;;
12715;SDS011;6422;49.938;9.124;2022-10-16T01:58:23;11.10;;;3.20;;
12715;SDS011;6422;49.938;9.124;2022-10-16T02:00:48;9.03;;;2.50;;
12715;SDS011;6422;49.938;9.124;2022-10-16T02:03:15;9.73;;;2.23;;
12715;SDS011;6422;49.938;9.124;2022-10-16T02:05:46;10.20;;;2.83;;
12715;SDS011;6422;49.938;9.124;2022-10-16T02:08:12;14.00;;;3.20;;
12715;SDS011;6422;49.938;9.124;2022-10-16T02:10:37;11.60;;;3.20;;
12715;SDS011;6422;49.938;9.124;2022-10-16T02:13:10;9.83;;;3.17;;
12715;SDS011;6422;49.938;9.124;2022-10-16T02:15:36;17.03;;;3.00;;
12715;SDS011;6422;49.938;9.124;2022-10-16T02:18:05;10.03;;;2.53;;
12715;SDS011;6422;49.938;9.124;2022-10-16T02:20:40;9.63;;;2.87;;
12715;SDS011;6422;49.938;9.124;2022-10-16T02:23:08;14.00;;;2.73;;
12715;SDS011;6422;49.938;9.124;2022-10-16T02:25:37;9.80;;;3.30;;
12715;SDS011;6422;49.938;9.124;2022-10-16T02:28:04;10.10;;;3.00;;
12715;SDS011;6422;49.938;9.124;2022-10-16T02:30:47;10.33;;;3.00;;
12715;SDS011;6422;49.938;9.124;2022-10-16T02:33:13;10.20;;;2.50;;
12715;SDS011;6422;49.938;9.124;2022-10-16T02:35:39;10.20;;;3.30;;
12715;SDS011;6422;49.938;9.124;2022-10-16T02:38:05;11.30;;;3.20;;
12715;SDS011;6422;49.938;9.124;2022-10-16T02:40:31;9.80;;;2.73;;
12715;SDS011;6422;49.938;9.124;2022-10-16T02:42:56;10.63;;;3.23;;
12715;SDS011;6422;49.938;9.124;2022-10-16T02:45:22;9.60;;;2.70;;
12715;SDS011;6422;49.938;9.124;2022-10-16T02:47:47;10.00;;;2.73;;
12715;SDS011;6422;49.938;9.124;2022-10-16T02:50:12;9.47;;;2.80;;
12715;SDS011;6422;49.938;9.124;2022-10-16T02:52:37;9.87;;;2.53;;
12715;SDS011;6422;49.938;9.124;2022-10-16T02:55:03;9.97;;;2.60;;
12715;SDS011;6422;49.938;9.124;2022-10-16T02:57:28;10.13;;;2.57;;
12715;SDS011;6422;49.938;9.124;2022-10-16T02:59:53;8.40;;;3.00;;
12715;SDS011;6422;49.938;9.124;2022-10-16T03:02:19;10.53;;;2.70;;
12715;SDS011;6422;49.938;9.124;2022-10-16T03:04:44;9.23;;;3.20;;
12715;SDS011;6422;49.938;9.124;2022-10-16T03:07:10;10.40;;;2.90;;
12715;SDS011;6422;49.938;9.124;2022-10-16T03:09:35;10.40;;;2.77;;
12715;SDS011;6422;49.938;9.124;2022-10-16T03:12:00;10.65;;;2.55;;
12715;SDS011;6422;49.938;9.124;2022-10-16T03:14:25;13.20;;;2.90;;
12715;SDS011;6422;49.938;9.124;2022-10-16T03:16:50;9.97;;;3.17;;
12715;SDS011;6422;49.938;9.124;2022-10-16T03:19:16;10.30;;;3.13;;
12715;SDS011;6422;49.938;9.124;2022-10-16T03:21:41;10.73;;;3.57;;
12715;SDS011;6422;49.938;9.124;2022-10-16T03:24:07;10.40;;;3.07;;
12715;SDS011;6422;49.938;9.124;2022-10-16T03:26:32;10.20;;;3.37;;
12715;SDS011;6422;49.938;9.124;2022-10-16T03:28:57;10.10;;;2.70;;
12715;SDS011;6422;49.938;9.124;2022-10-16T03:31:22;10.20;;;3.27;;
12715;SDS011;6422;49.938;9.124;2022-10-16T03:33:47;12.97;;;3.80;;
12715;SDS011;6422;49.938;9.124;2022-10-16T03:36:12;12.23;;;3.75;;
12715;SDS011;6422;49.938;9.124;2022-10-16T03:38:38;9.07;;;2.77;;
12715;SDS011;6422;49.938;9.124;2022-10-16T03:41:03;10.30;;;3.23;;
12715;SDS011;6422;49.938;9.124;2022-10-16T03:43:29;9.30;;;3.23;;
12715;SDS011;6422;49.938;9.124;2022-10-16T03:45:54;10.60;;;3.13;;
12715;SDS011;6422;49.938;9.124;2022-10-16T03:48:19;10.07;;;2.70;;
12715;SDS011;6422;49.938;9.124;2022-10-16T03:50:44;10.20;;;3.07;;
12715;SDS011;6422;49.938;9.124;2022-10-16T03:53:10;9.63;;;3.30;;
12715;SDS011;6422;49.938;9.124;2022-10-16T03:55:36;9.90;;;3.00;;
12715;SDS011;6422;49.938;9.124;2022-10-16T03:58:01;9.00;;;2.80;;
12715;SDS011;6422;49.938;9.124;2022-10-16T04:00:26;10.70;;;2.93;;
12715;SDS011;6422;49.938;9.124;2022-10-16T04:02:51;9.53;;;3.10;;
12715;SDS011;6422;49.938;9.124;2022-10-16T04:05:16;9.17;;;2.40;;
12715;SDS011;6422;49.938;9.124;2022-10-16T04:07:42;10.10;;;2.27;;
12715;SDS011;6422;49.938;9.124;2022-10-16T04:10:07;9.70;;;2.37;;
12715;SDS011;6422;49.938;9.124;2022-10-16T04:12:32;9.37;;;2.40;;
12715;SDS011;6422;49.938;9.124;2022-10-16T04:14:57;10.37;;;2.77;;
12715;SDS011;6422;49.938;9.124;2022-10-16T04:17:23;9.80;;;2.57;;
12715;SDS011;6422;49.938;9.124;2022-10-16T04:19:48;13.70;;;2.43;;
12715;SDS011;6422;49.938;9.124;2022-10-16T04:22:13;14.23;;;2.90;;
12715;SDS011;6422;49.938;9.124;2022-10-16T04:24:38;11.00;;;2.53;;
12715;SDS011;6422;49.938;9.124;2022-10-16T04:27:04;9.57;;;2.53;;
12715;SDS011;6422;49.938;9.124;2022-10-16T04:29:29;9.30;;;2.20;;
12715;SDS011;6422;49.938;9.124;2022-10-16T04:31:54;9.37;;;2.40;;
12715;SDS011;6422;49.938;9.124;2022-10-16T04:34:19;10.33;;;2.30;;
12715;SDS011;6422;49.938;9.124;2022-10-16T04:36:47;9.80;;;2.13;;
12715;SDS011;6422;49.938;9.124;2022-10-16T04:39:12;9.90;;;2.33;;
12715;SDS011;6422;49.938;9.124;2022-10-16T04:41:37;9.40;;;2.30;;
12715;SDS011;6422;49.938;9.124;2022-10-16T04:44:03;13.50;;;3.10;;
12715;SDS011;6422;49.938;9.124;2022-10-16T04:46:28;9.90;;;2.50;;
12715;SDS011;6422;49.938;9.124;2022-10-16T04:48:53;9.57;;;2.30;;
12715;SDS011;6422;49.938;9.124;2022-10-16T04:51:18;10.20;;;2.50;;
12715;SDS011;6422;49.938;9.124;2022-10-16T04:53:44;12.38;;;5.85;;
12715;SDS011;6422;49.938;9.124;2022-10-16T04:56:09;10.23;;;3.40;;
12715;SDS011;6422;49.938;9.124;2022-10-16T04:58:34;13.27;;;7.97;;
12715;SDS011;6422;49.938;9.124;2022-10-16T05:00:59;10.30;;;3.50;;
12715;SDS011;6422;49.938;9.124;2022-10-16T05:03:24;10.77;;;3.40;;
12715;SDS011;6422;49.938;9.124;2022-10-16T05:05:50;9.90;;;3.00;;
12715;SDS011;6422;49.938;9.124;2022-10-16T05:08:15;11.03;;;3.20;;
12715;SDS011;6422;49.938;9.124;2022-10-16T05:10:41;10.07;;;2.90;;
12715;SDS011;6422;49.938;9.124;2022-10-16T05:13:06;9.90;;;2.73;;
12715;SDS011;6422;49.938;9.124;2022-10-16T05:15:32;10.07;;;2.77;;
12715;SDS011;6422;49.938;9.124;2022-10-16T05:17:57;9.40;;;2.50;;
12715;SDS011;6422;49.938;9.124;2022-10-16T05:20:23;15.10;;;3.00;;
12715;SDS011;6422;49.938;9.124;2022-10-16T05:22:48;9.47;;;2.57;;
12715;SDS011;6422;49.938;9.124;2022-10-16T05:25:13;10.40;;;2.83;;
12715;SDS011;6422;49.938;9.124;2022-10-16T05:27:38;9.87;;;2.50;;
12715;SDS011;6422;49.938;9.124;2022-10-16T05:30:03;9.40;;;2.90;;
12715;SDS011;6422;49.938;9.124;2022-10-16T05:32:29;10.17;;;2.90;;
12715;SDS011;6422;49.938;9.124;2022-10-16T05:34:54;9.57;;;2.63;;
12715;SDS011;6422;49.938;9.124;2022-10-16T05:37:19;9.07;;;2.53;;
12715;SDS011;6422;49.938;9.124;2022-10-16T05:39:44;14.23;;;3.07;;
12715;SDS011;6422;49.938;9.124;2022-10-16T05:42:09;9.33;;;2.23;;
12715;SDS011;6422;49.938;9.124;2022-10-16T05:44:35;10.10;;;3.07;;
12715;SDS011;6422;49.938;9.124;2022-10-16T05:47:00;9.38;;;2.90;;
12715;SDS011;6422;49.938;9.124;2022-10-16T05:49:25;9.50;;;2.37;;
12715;SDS011;6422;49.938;9.124;2022-10-16T05:51:50;9.97;;;2.90;;
12715;SDS011;6422;49.938;9.124;2022-10-16T05:54:15;9.30;;;2.63;;
12715;SDS011;6422;49.938;9.124;2022-10-16T05:56:40;9.73;;;2.90;;
12715;SDS011;6422;49.938;9.124;2022-10-16T05:59:06;9.23;;;2.70;;
12715;SDS011;6422;49.938;9.124;2022-10-16T06:01:31;9.47;;;2.87;;
12715;SDS011;6422;49.938;9.124;2022-10-16T06:03:57;11.40;;;2.83;;
12715;SDS011;6422;49.938;9.124;2022-10-16T06:06:23;9.60;;;2.90;;
12715;SDS011;6422;49.938;9.124;2022-10-16T06:08:50;8.63;;;2.97;;
12715;SDS011;6422;49.938;9.124;2022-10-16T06:11:17;12.50;;;3.57;;
12715;SDS011;6422;49.938;9.124;2022-10-16T06:13:42;11.03;;;3.47;;
12715;SDS011;6422;49.938;9.124;2022-10-16T06:16:08;13.40;;;2.93;;
12715;SDS011;6422;49.938;9.124;2022-10-16T06:18:34;9.20;;;3.27;;
12715;SDS011;6422;49.938;9.124;2022-10-16T06:20:59;9.30;;;2.63;;
12715;SDS011;6422;49.938;9.124;2022-10-16T06:23:24;10.17;;;3.00;;
12715;SDS011;6422;49.938;9.124;2022-10-16T06:25:49;10.90;;;3.13;;
12715;SDS011;6422;49.938;9.124;2022-10-16T06:28:15;12.17;;;3.30;;
12715;SDS011;6422;49.938;9.124;2022-10-16T06:30:40;9.50;;;3.00;;
12715;SDS011;6422;49.938;9.124;2022-10-16T06:33:05;10.27;;;3.30;;
12715;SDS011;6422;49.938;9.124;2022-10-16T06:35:30;9.30;;;3.13;;
12715;SDS011;6422;49.938;9.124;2022-10-16T06:37:57;21.20;;;3.23;;
12715;SDS011;6422;49.938;9.124;2022-10-16T06:40:22;9.67;;;3.17;;
12715;SDS011;6422;49.938;9.124;2022-10-16T06:42:47;9.98;;;2.88;;
12715;SDS011;6422;49.938;9.124;2022-10-16T06:45:12;10.57;;;3.03;;
12715;SDS011;6422;49.938;9.124;2022-10-16T06:47:37;9.00;;;3.17;;
12715;SDS011;6422;49.938;9.124;2022-10-16T06:50:03;9.47;;;2.90;;
12715;SDS011;6422;49.938;9.124;2022-10-16T06:52:28;9.57;;;2.80;;
12715;SDS011;6422;49.938;9.124;2022-10-16T06:54:53;11.30;;;2.70;;
12715;SDS011;6422;49.938;9.124;2022-10-16T06:57:19;10.17;;;3.17;;
12715;SDS011;6422;49.938;9.124;2022-10-16T06:59:44;9.33;;;2.60;;
12715;SDS011;6422;49.938;9.124;2022-10-16T07:02:10;9.10;;;2.80;;
12715;SDS011;6422;49.938;9.124;2022-10-16T07:04:35;12.77;;;3.57;;
12715;SDS011;6422;49.938;9.124;2022-10-16T07:07:01;10.80;;;2.97;;
12715;SDS011;6422;49.938;9.124;2022-10-16T07:09:26;12.50;;;3.20;;
12715;SDS011;6422;49.938;9.124;2022-10-16T07:11:51;9.57;;;2.93;;
12715;SDS011;6422;49.938;9.124;2022-10-16T07:14:17;8.53;;;3.27;;
12715;SDS011;6422;49.938;9.124;2022-10-16T07:16:42;11.30;;;3.87;;
12715;SDS011;6422;49.938;9.124;2022-10-16T07:19:08;9.60;;;2.93;;
12715;SDS011;6422;49.938;9.124;2022-10-16T07:21:33;17.40;;;3.30;;
12715;SDS011;6422;49.938;9.124;2022-10-16T07:24:02;9.10;;;3.10;;
12715;SDS011;6422;49.938;9.124;2022-10-16T07:26:28;9.80;;;3.47;;
12715;SDS011;6422;49.938;9.124;2022-10-16T07:28:53;14.57;;;3.27;;
12715;SDS011;6422;49.938;9.124;2022-10-16T07:31:21;10.93;;;3.40;;
12715;SDS011;6422;49.938;9.124;2022-10-16T07:33:47;10.40;;;3.40;;
12715;SDS011;6422;49.938;9.124;2022-10-16T07:36:13;10.20;;;3.70;;
12715;SDS011;6422;49.938;9.124;2022-10-16T07:38:38;10.43;;;3.27;;
12715;SDS011;6422;49.938;9.124;2022-10-16T07:41:05;9.93;;;3.10;;
12715;SDS011;6422;49.938;9.124;2022-10-16T07:43:31;12.20;;;3.10;;
12715;SDS011;6422;49.938;9.124;2022-10-16T07:45:56;12.93;;;3.20;;
12715;SDS011;6422;49.938;9.124;2022-10-16T07:48:22;11.37;;;3.93;;
12715;SDS011;6422;49.938;9.124;2022-10-16T07:50:48;11.30;;;3.60;;
12715;SDS011;6422;49.938;9.124;2022-10-16T07:53:13;10.17;;;3.23;;
12715;SDS011;6422;49.938;9.124;2022-10-16T07:55:38;10.30;;;3.40;;
12715;SDS011;6422;49.938;9.124;2022-10-16T07:58:04;9.90;;;3.23;;
12715;SDS011;6422;49.938;9.124;2022-10-16T08:00:29;10.30;;;3.80;;
12715;SDS011;6422;49.938;9.124;2022-10-16T08:02:56;10.97;;;3.10;;
12715;SDS011;6422;49.938;9.124;2022-10-16T08:05:21;9.00;;;3.10;;
12715;SDS011;6422;49.938;9.124;2022-10-16T08:07:49;9.67;;;2.60;;
12715;SDS011;6422;49.938;9.124;2022-10-16T08:10:18;10.00;;;3.60;;
12715;SDS011;6422;49.938;9.124;2022-10-16T08:12:44;12.77;;;3.30;;
12715;SDS011;6422;49.938;9.124;2022-10-16T08:15:09;11.00;;;3.90;;
12715;SDS011;6422;49.938;9.124;2022-10-16T08:17:34;20.23;;;3.67;;
12715;SDS011;6422;49.938;9.124;2022-10-16T08:19:59;11.37;;;3.27;;
12715;SDS011;6422;49.938;9.124;2022-10-16T08:22:25;14.23;;;3.70;;
12715;SDS011;6422;49.938;9.124;2022-10-16T08:24:50;10.17;;;3.03;;
12715;SDS011;6422;49.938;9.124;2022-10-16T08:27:15;10.90;;;3.87;;
12715;SDS011;6422;49.938;9.124;2022-10-16T08:29:40;12.30;;;3.22;;
12715;SDS011;6422;49.938;9.124;2022-10-16T08:32:05;10.10;;;3.60;;
12715;SDS011;6422;49.938;9.124;2022-10-16T08:34:31;11.13;;;3.10;;
12715;SDS011;6422;49.938;9.124;2022-10-16T08:36:56;9.47;;;3.10;;
12715;SDS011;6422;49.938;9.124;2022-10-16T08:39:21;10.00;;;2.87;;
12715;SDS011;6422;49.938;9.124;2022-10-16T08:41:52;9.30;;;3.43;;
12715;SDS011;6422;49.938;9.124;2022-10-16T08:49:14;17.00;;;3.20;;
12715;SDS011;6422;49.938;9.124;2022-10-16T08:51:39;11.43;;;3.60;;
12715;SDS011;6422;49.938;9.124;2022-10-16T08:54:06;12.40;;;3.50;;
12715;SDS011;6422;49.938;9.124;2022-10-16T08:56:37;10.23;;;3.60;;
12715;SDS011;6422;49.938;9.124;2022-10-16T08:59:02;9.97;;;3.40;;
12715;SDS011;6422;49.938;9.124;2022-10-16T09:01:39;10.93;;;3.20;;
12715;SDS011;6422;49.938;9.124;2022-10-16T09:06:42;10.50;;;2.40;;
12715;SDS011;6422;49.938;9.124;2022-10-16T09:09:22;9.10;;;2.73;;
12715;SDS011;6422;49.938;9.124;2022-10-16T09:12:09;10.80;;;3.00;;
12715;SDS011;6422;49.938;9.124;2022-10-16T09:19:48;10.77;;;3.60;;
12715;SDS011;6422;49.938;9.124;2022-10-16T09:22:16;12.77;;;3.53;;
12715;SDS011;6422;49.938;9.124;2022-10-16T09:24:42;11.40;;;3.17;;
12715;SDS011;6422;49.938;9.124;2022-10-16T09:27:11;9.73;;;2.90;;
12715;SDS011;6422;49.938;9.124;2022-10-16T09:29:36;8.73;;;2.80;;
12715;SDS011;6422;49.938;9.124;2022-10-16T09:32:12;10.87;;;3.13;;
12715;SDS011;6422;49.938;9.124;2022-10-16T09:34:40;15.33;;;3.00;;
12715;SDS011;6422;49.938;9.124;2022-10-16T09:37:10;9.10;;;3.20;;
12715;SDS011;6422;49.938;9.124;2022-10-16T09:39:47;12.57;;;3.63;;
12715;SDS011;6422;49.938;9.124;2022-10-16T09:42:22;10.77;;;3.40;;
12715;SDS011;6422;49.938;9.124;2022-10-16T09:44:51;15.60;;;2.80;;
12715;SDS011;6422;49.938;9.124;2022-10-16T09:47:18;11.40;;;3.70;;
12715;SDS011;6422;49.938;9.124;2022-10-16T09:49:56;11.60;;;3.60;;
12715;SDS011;6422;49.938;9.124;2022-10-16T09:52:23;10.47;;;3.13;;
12715;SDS011;6422;49.938;9.124;2022-10-16T09:54:53;15.17;;;4.43;;
12715;SDS011;6422;49.938;9.124;2022-10-16T09:57:18;9.93;;;3.30;;
12715;SDS011;6422;49.938;9.124;2022-10-16T09:59:48;10.63;;;3.20;;
12715;SDS011;6422;49.938;9.124;2022-10-16T10:02:14;10.33;;;3.23;;
12715;SDS011;6422;49.938;9.124;2022-10-16T10:04:50;12.80;;;3.50;;
12715;SDS011;6422;49.938;9.124;2022-10-16T10:07:17;10.23;;;3.23;;
12715;SDS011;6422;49.938;9.124;2022-10-16T10:09:43;9.20;;;3.20;;
12715;SDS011;6422;49.938;9.124;2022-10-16T10:12:19;9.87;;;3.00;;
12715;SDS011;6422;49.938;9.124;2022-10-16T10:14:46;10.43;;;3.03;;
12715;SDS011;6422;49.938;9.124;2022-10-16T10:17:13;9.63;;;3.00;;
12715;SDS011;6422;49.938;9.124;2022-10-16T10:19:49;9.17;;;3.57;;
12715;SDS011;6422;49.938;9.124;2022-10-16T10:27:20;10.83;;;4.40;;
12715;SDS011;6422;49.938;9.124;2022-10-16T10:32:17;11.00;;;4.47;;
12715;SDS011;6422;49.938;9.124;2022-10-16T10:37:38;11.47;;;5.77;;
12715;SDS011;6422;49.938;9.124;2022-10-16T10:45:18;10.47;;;4.60;;
12715;SDS011;6422;49.938;9.124;2022-10-16T10:48:06;8.53;;;4.00;;
12715;SDS011;6422;49.938;9.124;2022-10-16T10:50:42;10.10;;;3.90;;
12715;SDS011;6422;49.938;9.124;2022-10-16T10:55:54;9.77;;;3.93;;
12715;SDS011;6422;49.938;9.124;2022-10-16T11:01:00;10.85;;;4.70;;
12715;SDS011;6422;49.938;9.124;2022-10-16T11:06:11;9.60;;;4.03;;
12715;SDS011;6422;49.938;9.124;2022-10-16T11:09:10;10.30;;;3.53;;
12715;SDS011;6422;49.938;9.124;2022-10-16T11:11:35;8.20;;;3.13;;
12715;SDS011;6422;49.938;9.124;2022-10-16T11:14:04;10.10;;;3.63;;
12715;SDS011;6422;49.938;9.124;2022-10-16T11:16:35;9.50;;;3.13;;
12715;SDS011;6422;49.938;9.124;2022-10-16T11:19:12;12.90;;;3.40;;
12715;SDS011;6422;49.938;9.124;2022-10-16T11:21:43;12.73;;;3.63;;
12715;SDS011;6422;49.938;9.124;2022-10-16T11:24:14;9.27;;;3.10;;
12715;SDS011;6422;49.938;9.124;2022-10-16T11:26:41;10.13;;;2.93;;
12715;SDS011;6422;49.938;9.124;2022-10-16T11:29:12;10.00;;;3.30;;
12715;SDS011;6422;49.938;9.124;2022-10-16T11:31:41;9.70;;;2.90;;
12715;SDS011;6422;49.938;9.124;2022-10-16T11:39:16;9.40;;;2.90;;
12715;SDS011;6422;49.938;9.124;2022-10-16T11:49:49;9.60;;;2.40;;
12715;SDS011;6422;49.938;9.124;2022-10-16T11:57:20;8.23;;;2.57;;
12715;SDS011;6422;49.938;9.124;2022-10-16T11:59:47;9.40;;;2.53;;
12715;SDS011;6422;49.938;9.124;2022-10-16T12:04:45;9.43;;;2.73;;
12715;SDS011;6422;49.938;9.124;2022-10-16T12:07:14;10.20;;;2.67;;
12715;SDS011;6422;49.938;9.124;2022-10-16T12:09:42;9.50;;;2.60;;
12715;SDS011;6422;49.938;9.124;2022-10-16T12:12:24;10.27;;;3.03;;
12715;SDS011;6422;49.938;9.124;2022-10-16T12:14:59;12.97;;;10.03;;
12715;SDS011;6422;49.938;9.124;2022-10-16T12:17:34;9.87;;;3.87;;
12715;SDS011;6422;49.938;9.124;2022-10-16T12:20:21;8.10;;;3.10;;
12715;SDS011;6422;49.938;9.124;2022-10-16T12:22:49;9.70;;;2.80;;
12715;SDS011;6422;49.938;9.124;2022-10-16T12:25:31;8.93;;;2.80;;
12715;SDS011;6422;49.938;9.124;2022-10-16T12:30:26;9.77;;;2.97;;
12715;SDS011;6422;49.938;9.124;2022-10-16T12:32:53;9.67;;;2.70;;
12715;SDS011;6422;49.938;9.124;2022-10-16T12:35:43;8.30;;;2.60;;
12715;SDS011;6422;49.938;9.124;2022-10-16T12:38:07;11.53;;;2.70;;
12715;SDS011;6422;49.938;9.124;2022-10-16T12:40:34;10.13;;;2.70;;
12715;SDS011;6422;49.938;9.124;2022-10-16T12:43:10;9.43;;;2.83;;
12715;SDS011;6422;49.938;9.124;2022-10-16T12:45:36;9.10;;;2.70;;
12715;SDS011;6422;49.938;9.124;2022-10-16T12:48:02;9.80;;;2.83;;
12715;SDS011;6422;49.938;9.124;2022-10-16T12:50:32;9.40;;;2.37;;
12715;SDS011;6422;49.938;9.124;2022-10-16T12:52:58;9.90;;;2.83;;
12715;SDS011;6422;49.938;9.124;2022-10-16T12:55:24;10.30;;;3.67;;
12715;SDS011;6422;49.938;9.124;2022-10-16T13:00:22;9.57;;;2.87;;
12715;SDS011;6422;49.938;9.124;2022-10-16T13:05:21;9.50;;;2.97;;
12715;SDS011;6422;49.938;9.124;2022-10-16T13:10:40;9.20;;;2.80;;
12715;SDS011;6422;49.938;9.124;2022-10-16T13:18:26;8.90;;;2.90;;
12715;SDS011;6422;49.938;9.124;2022-10-16T13:21:04;9.83;;;3.10;;
12715;SDS011;6422;49.938;9.124;2022-10-16T13:26:09;9.90;;;2.97;;
12715;SDS011;6422;49.938;9.124;2022-10-16T13:28:38;8.50;;;2.80;;
12715;SDS011;6422;49.938;9.124;2022-10-16T13:31:04;8.90;;;2.90;;
12715;SDS011;6422;49.938;9.124;2022-10-16T13:33:31;10.47;;;3.50;;
12715;SDS011;6422;49.938;9.124;2022-10-16T13:35:57;12.23;;;2.47;;
12715;SDS011;6422;49.938;9.124;2022-10-16T13:38:26;8.33;;;2.90;;
12715;SDS011;6422;49.938;9.124;2022-10-16T13:46:02;11.00;;;3.33;;
12715;SDS011;6422;49.938;9.124;2022-10-16T13:48:28;9.23;;;3.40;;
12715;SDS011;6422;49.938;9.124;2022-10-16T13:53:25;9.50;;;2.50;;
12715;SDS011;6422;49.938;9.124;2022-10-16T13:55:50;9.87;;;2.73;;
12715;SDS011;6422;49.938;9.124;2022-10-16T13:58:15;15.17;;;2.90;;
12715;SDS011;6422;49.938;9.124;2022-10-16T14:00:42;9.83;;;2.83;;
12715;SDS011;6422;49.938;9.124;2022-10-16T14:03:17;8.77;;;2.53;;
12715;SDS011;6422;49.938;9.124;2022-10-16T14:05:47;8.60;;;2.80;;
12715;SDS011;6422;49.938;9.124;2022-10-16T14:08:13;9.73;;;2.90;;
12715;SDS011;6422;49.938;9.124;2022-10-16T14:10:38;8.13;;;2.70;;
12715;SDS011;6422;49.938;9.124;2022-10-16T14:13:05;9.40;;;3.23;;
12715;SDS011;6422;49.938;9.124;2022-10-16T14:15:32;9.13;;;3.30;;
12715;SDS011;6422;49.938;9.124;2022-10-16T14:17:57;9.30;;;2.90;;
12715;SDS011;6422;49.938;9.124;2022-10-16T14:20:24;9.60;;;2.70;;
12715;SDS011;6422;49.938;9.124;2022-10-16T14:22:57;10.67;;;3.73;;
12715;SDS011;6422;49.938;9.124;2022-10-16T14:25:27;8.90;;;2.87;;
12715;SDS011;6422;49.938;9.124;2022-10-16T14:28:14;9.60;;;2.83;;
12715;SDS011;6422;49.938;9.124;2022-10-16T14:30:49;8.43;;;2.60;;
12715;SDS011;6422;49.938;9.124;2022-10-16T14:35:59;11.73;;;3.93;;
12715;SDS011;6422;49.938;9.124;2022-10-16T14:38:25;11.80;;;3.90;;
12715;SDS011;6422;49.938;9.124;2022-10-16T14:40:50;10.00;;;3.83;;
12715;SDS011;6422;49.938;9.124;2022-10-16T14:43:22;10.80;;;3.77;;
12715;SDS011;6422;49.938;9.124;2022-10-16T14:45:51;11.90;;;3.30;;
12715;SDS011;6422;49.938;9.124;2022-10-16T14:48:18;17.10;;;3.60;;
12715;SDS011;6422;49.938;9.124;2022-10-16T14:50:44;10.13;;;3.30;;
12715;SDS011;6422;49.938;9.124;2022-10-16T14:53:12;13.20;;;4.00;;
12715;SDS011;6422;49.938;9.124;2022-10-16T14:55:38;13.53;;;4.50;;
12715;SDS011;6422;49.938;9.124;2022-10-16T14:58:03;9.50;;;3.93;;
12715;SDS011;6422;49.938;9.124;2022-10-16T15:00:28;13.10;;;4.07;;
12715;SDS011;6422;49.938;9.124;2022-10-16T15:02:54;10.27;;;3.70;;
12715;SDS011;6422;49.938;9.124;2022-10-16T15:05:28;10.10;;;3.83;;
12715;SDS011;6422;49.938;9.124;2022-10-16T15:07:53;9.30;;;3.80;;
12715;SDS011;6422;49.938;9.124;2022-10-16T15:10:20;9.90;;;3.97;;
12715;SDS011;6422;49.938;9.124;2022-10-16T15:12:45;10.57;;;4.00;;
12715;SDS011;6422;49.938;9.124;2022-10-16T15:17:36;10.40;;;4.10;;
12715;SDS011;6422;49.938;9.124;2022-10-16T15:20:01;10.90;;;4.37;;
12715;SDS011;6422;49.938;9.124;2022-10-16T15:22:26;10.20;;;4.03;;
12715;SDS011;6422;49.938;9.124;2022-10-16T15:24:51;9.70;;;3.83;;
12715;SDS011;6422;49.938;9.124;2022-10-16T15:27:16;8.55;;;4.15;;
12715;SDS011;6422;49.938;9.124;2022-10-16T15:29:42;10.80;;;4.80;;
12715;SDS011;6422;49.938;9.124;2022-10-16T15:32:08;20.73;;;4.17;;
12715;SDS011;6422;49.938;9.124;2022-10-16T15:34:33;10.50;;;4.20;;
12715;SDS011;6422;49.938;9.124;2022-10-16T15:36:58;9.83;;;4.23;;
12715;SDS011;6422;49.938;9.124;2022-10-16T15:39:27;12.23;;;4.87;;
12715;SDS011;6422;49.938;9.124;2022-10-16T15:41:52;10.90;;;4.63;;
12715;SDS011;6422;49.938;9.124;2022-10-16T15:44:18;11.73;;;5.00;;
12715;SDS011;6422;49.938;9.124;2022-10-16T15:46:43;10.80;;;4.33;;
12715;SDS011;6422;49.938;9.124;2022-10-16T15:49:09;10.93;;;5.13;;
12715;SDS011;6422;49.938;9.124;2022-10-16T15:51:37;9.97;;;4.47;;
12715;SDS011;6422;49.938;9.124;2022-10-16T15:54:02;10.60;;;4.97;;
12715;SDS011;6422;49.938;9.124;2022-10-16T15:56:28;13.90;;;4.80;;
12715;SDS011;6422;49.938;9.124;2022-10-16T15:58:53;15.80;;;5.03;;
12715;SDS011;6422;49.938;9.124;2022-10-16T16:01:19;13.83;;;4.47;;
12715;SDS011;6422;49.938;9.124;2022-10-16T16:03:44;11.87;;;5.07;;
12715;SDS011;6422;49.938;9.124;2022-10-16T16:06:10;10.10;;;5.07;;
12715;SDS011;6422;49.938;9.124;2022-10-16T16:08:37;15.40;;;5.90;;
12715;SDS011;6422;49.938;9.124;2022-10-16T16:11:04;9.37;;;4.57;;
12715;SDS011;6422;49.938;9.124;2022-10-16T16:13:29;10.53;;;5.00;;
12715;SDS011;6422;49.938;9.124;2022-10-16T16:15:54;12.13;;;5.47;;
12715;SDS011;6422;49.938;9.124;2022-10-16T16:18:20;14.47;;;6.00;;
12715;SDS011;6422;49.938;9.124;2022-10-16T16:20:45;15.30;;;5.03;;
12715;SDS011;6422;49.938;9.124;2022-10-16T16:23:11;11.17;;;5.00;;
12715;SDS011;6422;49.938;9.124;2022-10-16T16:25:36;13.70;;;9.50;;
12715;SDS011;6422;49.938;9.124;2022-10-16T16:28:01;12.73;;;7.53;;
12715;SDS011;6422;49.938;9.124;2022-10-16T16:30:26;11.63;;;5.80;;
12715;SDS011;6422;49.938;9.124;2022-10-16T16:32:51;12.20;;;5.80;;
12715;SDS011;6422;49.938;9.124;2022-10-16T16:35:17;15.10;;;6.97;;
12715;SDS011;6422;49.938;9.124;2022-10-16T16:37:42;13.67;;;5.93;;
12715;SDS011;6422;49.938;9.124;2022-10-16T16:40:07;14.40;;;7.30;;
12715;SDS011;6422;49.938;9.124;2022-10-16T16:42:32;14.00;;;6.93;;